sensor_id;sensor_type;location;lat;lon;timestamp;temperature;humidity
32524;DHT22;18965;52.242;20.886;2023-06-22T00:01:11;21.20;84.80
32524;DHT22;18965;52.242;20.886;2023-06-22T00:03:36;21.20;84.10
32524;DHT22;18965;52.242;20.886;2023-06-22T00:06:02;21.20;84.20
32524;DHT22;18965;52.242;20.886;2023-06-22T00:08:28;21.20;84.10
32524;DHT22;18965;52.242;20.886;2023-06-22T00:10:53;21.20;84.20
32524;DHT22;18965;52.242;20.886;2023-06-22T00:13:19;21.10;84.30
32524;DHT22;18965;52.242;20.886;2023-06-22T00:15:45;21.10;84.30
32524;DHT22;18965;52.242;20.886;2023-06-22T00:18:11;21.10;84.30
32524;DHT22;18965;52.242;20.886;2023-06-22T00:20:38;21.00;84.40
32524;DHT22;18965;52.242;20.886;2023-06-22T00:23:06;21.00;84.40
32524;DHT22;18965;52.242;20.886;2023-06-22T00:25:39;21.00;84.60
32524;DHT22;18965;52.242;20.886;2023-06-22T00:28:06;21.00;84.70
32524;DHT22;18965;52.242;20.886;2023-06-22T00:30:33;21.00;84.80
32524;DHT22;18965;52.242;20.886;2023-06-22T00:32:59;21.00;84.80
32524;DHT22;18965;52.242;20.886;2023-06-22T00:35:26;21.00;84.90
32524;DHT22;18965;52.242;20.886;2023-06-22T00:37:55;20.90;84.80
32524;DHT22;18965;52.242;20.886;2023-06-22T00:40:30;20.90;84.80
32524;DHT22;18965;52.242;20.886;2023-06-22T00:42:56;20.90;84.90
32524;DHT22;18965;52.242;20.886;2023-06-22T00:45:25;20.90;84.90
32524;DHT22;18965;52.242;20.886;2023-06-22T00:47:53;20.90;85.00
32524;DHT22;18965;52.242;20.886;2023-06-22T00:50:24;20.90;85.00
32524;DHT22;18965;52.242;20.886;2023-06-22T00:52:58;20.90;85.10
32524;DHT22;18965;52.242;20.886;2023-06-22T00:55:25;20.90;85.00
32524;DHT22;18965;52.242;20.886;2023-06-22T00:57:54;20.90;85.00
32524;DHT22;18965;52.242;20.886;2023-06-22T01:00:25;20.80;84.90
32524;DHT22;18965;52.242;20.886;2023-06-22T01:02:52;20.80;85.10
32524;DHT22;18965;52.242;20.886;2023-06-22T01:05:20;20.80;85.10
32524;DHT22;18965;52.242;20.886;2023-06-22T01:11:10;20.80;85.20
32524;DHT22;18965;52.242;20.886;2023-06-22T01:13:45;20.80;85.20
32524;DHT22;18965;52.242;20.886;2023-06-22T01:16:30;20.80;85.30
32524;DHT22;18965;52.242;20.886;2023-06-22T01:18:59;20.80;85.20
32524;DHT22;18965;52.242;20.886;2023-06-22T01:21:28;20.80;85.20
32524;DHT22;18965;52.242;20.886;2023-06-22T01:26:59;20.80;85.40
32524;DHT22;18965;52.242;20.886;2023-06-22T01:29:27;20.80;85.50
32524;DHT22;18965;52.242;20.886;2023-06-22T01:31:54;20.70;85.40
32524;DHT22;18965;52.242;20.886;2023-06-22T01:34:23;20.70;85.40
32524;DHT22;18965;52.242;20.886;2023-06-22T01:36:49;20.70;85.50
32524;DHT22;18965;52.242;20.886;2023-06-22T01:39:16;20.70;85.40
32524;DHT22;18965;52.242;20.886;2023-06-22T01:41:42;20.70;85.50
32524;DHT22;18965;52.242;20.886;2023-06-22T01:44:10;20.70;85.50
32524;DHT22;18965;52.242;20.886;2023-06-22T01:46:38;20.70;85.50
32524;DHT22;18965;52.242;20.886;2023-06-22T01:49:05;20.70;85.50
32524;DHT22;18965;52.242;20.886;2023-06-22T01:51:32;20.60;85.40
32524;DHT22;18965;52.242;20.886;2023-06-22T01:53:57;20.60;85.50
32524;DHT22;18965;52.242;20.886;2023-06-22T01:56:23;20.60;85.50
32524;DHT22;18965;52.242;20.886;2023-06-22T01:59:43;20.70;85.50
32524;DHT22;18965;52.242;20.886;2023-06-22T02:02:15;20.60;85.50
32524;DHT22;18965;52.242;20.886;2023-06-22T02:04:44;20.60;85.60
32524;DHT22;18965;52.242;20.886;2023-06-22T02:07:14;20.50;85.60
32524;DHT22;18965;52.242;20.886;2023-06-22T02:09:44;20.50;85.80
32524;DHT22;18965;52.242;20.886;2023-06-22T02:12:11;20.60;86.10
32524;DHT22;18965;52.242;20.886;2023-06-22T02:14:38;20.60;86.20
32524;DHT22;18965;52.242;20.886;2023-06-22T02:17:05;20.60;86.30
32524;DHT22;18965;52.242;20.886;2023-06-22T02:19:36;20.50;86.30
32524;DHT22;18965;52.242;20.886;2023-06-22T02:22:03;20.60;86.40
32524;DHT22;18965;52.242;20.886;2023-06-22T02:24:29;20.60;86.30
32524;DHT22;18965;52.242;20.886;2023-06-22T02:26:58;20.60;86.30
32524;DHT22;18965;52.242;20.886;2023-06-22T02:29:23;20.60;86.30
32524;DHT22;18965;52.242;20.886;2023-06-22T02:31:49;20.60;86.30
32524;DHT22;18965;52.242;20.886;2023-06-22T02:34:15;20.60;86.30
32524;DHT22;18965;52.242;20.886;2023-06-22T02:36:47;20.70;86.40
32524;DHT22;18965;52.242;20.886;2023-06-22T02:39:24;20.60;86.40
32524;DHT22;18965;52.242;20.886;2023-06-22T02:41:51;20.70;86.60
32524;DHT22;18965;52.242;20.886;2023-06-22T02:44:18;20.70;86.60
32524;DHT22;18965;52.242;20.886;2023-06-22T02:46:44;20.70;86.70
32524;DHT22;18965;52.242;20.886;2023-06-22T02:49:11;20.70;86.80
32524;DHT22;18965;52.242;20.886;2023-06-22T02:51:39;20.80;86.90
32524;DHT22;18965;52.242;20.886;2023-06-22T02:54:08;20.80;87.00
32524;DHT22;18965;52.242;20.886;2023-06-22T02:56:33;20.80;87.00
32524;DHT22;18965;52.242;20.886;2023-06-22T02:58:59;20.80;87.10
32524;DHT22;18965;52.242;20.886;2023-06-22T03:01:28;20.90;87.10
32524;DHT22;18965;52.242;20.886;2023-06-22T03:03:56;20.90;87.20
32524;DHT22;18965;52.242;20.886;2023-06-22T03:06:22;20.90;87.20
32524;DHT22;18965;52.242;20.886;2023-06-22T03:08:51;20.90;87.20
32524;DHT22;18965;52.242;20.886;2023-06-22T03:11:17;20.90;87.20
32524;DHT22;18965;52.242;20.886;2023-06-22T03:13:43;21.00;87.20
32524;DHT22;18965;52.242;20.886;2023-06-22T03:16:11;21.00;87.40
32524;DHT22;18965;52.242;20.886;2023-06-22T03:18:36;21.00;87.30
32524;DHT22;18965;52.242;20.886;2023-06-22T03:21:02;21.10;87.30
32524;DHT22;18965;52.242;20.886;2023-06-22T03:23:28;21.10;87.30
32524;DHT22;18965;52.242;20.886;2023-06-22T03:25:53;21.10;87.30
32524;DHT22;18965;52.242;20.886;2023-06-22T03:28:21;21.10;87.30
32524;DHT22;18965;52.242;20.886;2023-06-22T03:30:47;21.20;87.40
32524;DHT22;18965;52.242;20.886;2023-06-22T03:33:13;21.20;87.40
32524;DHT22;18965;52.242;20.886;2023-06-22T03:35:38;21.20;87.30
32524;DHT22;18965;52.242;20.886;2023-06-22T03:38:04;21.30;87.40
32524;DHT22;18965;52.242;20.886;2023-06-22T03:40:30;21.30;87.30
32524;DHT22;18965;52.242;20.886;2023-06-22T03:42:56;21.30;87.30
32524;DHT22;18965;52.242;20.886;2023-06-22T03:45:21;21.40;87.10
32524;DHT22;18965;52.242;20.886;2023-06-22T03:47:47;21.40;87.10
32524;DHT22;18965;52.242;20.886;2023-06-22T03:50:14;21.50;87.10
32524;DHT22;18965;52.242;20.886;2023-06-22T03:52:41;21.50;87.10
32524;DHT22;18965;52.242;20.886;2023-06-22T03:55:07;21.50;87.10
32524;DHT22;18965;52.242;20.886;2023-06-22T03:57:33;21.60;87.00
32524;DHT22;18965;52.242;20.886;2023-06-22T04:00:00;21.70;86.90
32524;DHT22;18965;52.242;20.886;2023-06-22T04:02:26;21.70;86.90
32524;DHT22;18965;52.242;20.886;2023-06-22T04:04:51;21.80;86.70
32524;DHT22;18965;52.242;20.886;2023-06-22T04:07:17;21.90;86.80
32524;DHT22;18965;52.242;20.886;2023-06-22T04:09:43;22.00;86.70
32524;DHT22;18965;52.242;20.886;2023-06-22T04:12:09;22.10;86.40
32524;DHT22;18965;52.242;20.886;2023-06-22T04:14:35;22.10;86.20
32524;DHT22;18965;52.242;20.886;2023-06-22T04:17:01;22.30;86.10
32524;DHT22;18965;52.242;20.886;2023-06-22T04:19:27;22.30;85.80
32524;DHT22;18965;52.242;20.886;2023-06-22T04:21:52;22.40;85.60
32524;DHT22;18965;52.242;20.886;2023-06-22T04:24:18;22.50;85.30
32524;DHT22;18965;52.242;20.886;2023-06-22T04:26:44;22.50;84.90
32524;DHT22;18965;52.242;20.886;2023-06-22T04:29:12;22.50;84.60
32524;DHT22;18965;52.242;20.886;2023-06-22T04:31:38;22.50;84.60
32524;DHT22;18965;52.242;20.886;2023-06-22T04:34:05;22.50;84.50
32524;DHT22;18965;52.242;20.886;2023-06-22T04:36:34;22.50;84.40
32524;DHT22;18965;52.242;20.886;2023-06-22T04:39:04;22.60;84.50
32524;DHT22;18965;52.242;20.886;2023-06-22T04:41:30;22.60;84.20
32524;DHT22;18965;52.242;20.886;2023-06-22T04:44:10;22.70;84.20
32524;DHT22;18965;52.242;20.886;2023-06-22T04:46:36;22.70;84.20
32524;DHT22;18965;52.242;20.886;2023-06-22T04:49:09;22.80;83.90
32524;DHT22;18965;52.242;20.886;2023-06-22T04:51:40;22.80;84.00
32524;DHT22;18965;52.242;20.886;2023-06-22T04:54:07;22.80;83.80
32524;DHT22;18965;52.242;20.886;2023-06-22T04:56:33;22.90;83.60
32524;DHT22;18965;52.242;20.886;2023-06-22T04:58:59;22.90;83.40
32524;DHT22;18965;52.242;20.886;2023-06-22T05:01:24;22.90;83.30
32524;DHT22;18965;52.242;20.886;2023-06-22T05:03:51;22.90;83.20
32524;DHT22;18965;52.242;20.886;2023-06-22T05:06:21;22.90;83.10
32524;DHT22;18965;52.242;20.886;2023-06-22T05:08:52;22.90;83.10
32524;DHT22;18965;52.242;20.886;2023-06-22T05:11:17;23.00;83.10
32524;DHT22;18965;52.242;20.886;2023-06-22T05:13:45;23.00;83.20
32524;DHT22;18965;52.242;20.886;2023-06-22T05:16:11;23.00;83.00
32524;DHT22;18965;52.242;20.886;2023-06-22T05:18:37;23.10;83.00
32524;DHT22;18965;52.242;20.886;2023-06-22T05:21:02;23.10;83.00
32524;DHT22;18965;52.242;20.886;2023-06-22T05:23:28;23.20;82.90
32524;DHT22;18965;52.242;20.886;2023-06-22T05:25:54;23.30;83.00
32524;DHT22;18965;52.242;20.886;2023-06-22T05:28:22;23.40;83.00
32524;DHT22;18965;52.242;20.886;2023-06-22T05:30:50;23.60;82.70
32524;DHT22;18965;52.242;20.886;2023-06-22T05:33:16;23.70;82.20
32524;DHT22;18965;52.242;20.886;2023-06-22T05:35:42;23.70;82.00
32524;DHT22;18965;52.242;20.886;2023-06-22T05:38:08;23.80;81.40
32524;DHT22;18965;52.242;20.886;2023-06-22T05:40:33;23.80;81.10
32524;DHT22;18965;52.242;20.886;2023-06-22T05:42:59;23.80;81.70
32524;DHT22;18965;52.242;20.886;2023-06-22T05:45:27;23.80;81.00
32524;DHT22;18965;52.242;20.886;2023-06-22T05:47:52;23.90;80.70
32524;DHT22;18965;52.242;20.886;2023-06-22T05:50:18;23.90;80.60
32524;DHT22;18965;52.242;20.886;2023-06-22T05:52:44;23.90;80.50
32524;DHT22;18965;52.242;20.886;2023-06-22T05:55:10;23.90;80.20
32524;DHT22;18965;52.242;20.886;2023-06-22T05:57:35;23.90;80.00
32524;DHT22;18965;52.242;20.886;2023-06-22T06:00:01;23.90;80.00
32524;DHT22;18965;52.242;20.886;2023-06-22T06:02:31;23.90;80.10
32524;DHT22;18965;52.242;20.886;2023-06-22T06:04:56;24.00;80.30
32524;DHT22;18965;52.242;20.886;2023-06-22T06:07:22;24.10;80.40
32524;DHT22;18965;52.242;20.886;2023-06-22T06:09:48;24.20;80.30
32524;DHT22;18965;52.242;20.886;2023-06-22T06:12:13;24.30;80.20
32524;DHT22;18965;52.242;20.886;2023-06-22T06:14:39;24.40;80.00
32524;DHT22;18965;52.242;20.886;2023-06-22T06:17:05;24.60;79.90
32524;DHT22;18965;52.242;20.886;2023-06-22T06:19:31;24.80;79.40
32524;DHT22;18965;52.242;20.886;2023-06-22T06:21:56;24.90;78.70
32524;DHT22;18965;52.242;20.886;2023-06-22T06:24:22;25.00;78.40
32524;DHT22;18965;52.242;20.886;2023-06-22T06:26:48;25.30;78.30
32524;DHT22;18965;52.242;20.886;2023-06-22T06:29:14;25.50;77.40
32524;DHT22;18965;52.242;20.886;2023-06-22T06:31:41;25.80;77.00
32524;DHT22;18965;52.242;20.886;2023-06-22T06:34:07;26.10;76.10
32524;DHT22;18965;52.242;20.886;2023-06-22T06:36:33;26.30;75.60
32524;DHT22;18965;52.242;20.886;2023-06-22T06:38:59;26.90;75.70
32524;DHT22;18965;52.242;20.886;2023-06-22T06:41:24;28.20;74.20
32524;DHT22;18965;52.242;20.886;2023-06-22T06:43:50;29.90;71.00
32524;DHT22;18965;52.242;20.886;2023-06-22T06:46:16;31.70;65.70
32524;DHT22;18965;52.242;20.886;2023-06-22T06:48:41;32.80;60.90
32524;DHT22;18965;52.242;20.886;2023-06-22T06:51:08;32.70;58.90
32524;DHT22;18965;52.242;20.886;2023-06-22T06:53:36;32.50;58.30
32524;DHT22;18965;52.242;20.886;2023-06-22T06:56:02;32.00;57.80
32524;DHT22;18965;52.242;20.886;2023-06-22T06:58:27;31.50;58.20
32524;DHT22;18965;52.242;20.886;2023-06-22T07:00:54;31.10;58.40
32524;DHT22;18965;52.242;20.886;2023-06-22T07:03:19;30.80;58.70
32524;DHT22;18965;52.242;20.886;2023-06-22T07:05:45;30.50;59.10
32524;DHT22;18965;52.242;20.886;2023-06-22T07:08:11;30.10;58.50
32524;DHT22;18965;52.242;20.886;2023-06-22T07:10:37;29.80;58.70
32524;DHT22;18965;52.242;20.886;2023-06-22T07:13:02;29.50;59.50
32524;DHT22;18965;52.242;20.886;2023-06-22T07:15:28;29.40;60.30
32524;DHT22;18965;52.242;20.886;2023-06-22T07:17:54;29.30;60.20
32524;DHT22;18965;52.242;20.886;2023-06-22T07:20:19;29.20;60.10
32524;DHT22;18965;52.242;20.886;2023-06-22T07:22:45;29.20;60.20
32524;DHT22;18965;52.242;20.886;2023-06-22T07:25:11;29.10;59.60
32524;DHT22;18965;52.242;20.886;2023-06-22T07:27:43;29.00;59.80
32524;DHT22;18965;52.242;20.886;2023-06-22T07:30:11;29.00;60.50
32524;DHT22;18965;52.242;20.886;2023-06-22T07:32:37;29.00;60.70
32524;DHT22;18965;52.242;20.886;2023-06-22T07:35:03;28.90;60.50
32524;DHT22;18965;52.242;20.886;2023-06-22T07:37:29;28.90;60.70
32524;DHT22;18965;52.242;20.886;2023-06-22T07:39:55;28.90;60.30
32524;DHT22;18965;52.242;20.886;2023-06-22T07:42:27;28.90;60.30
32524;DHT22;18965;52.242;20.886;2023-06-22T07:44:53;28.90;60.10
32524;DHT22;18965;52.242;20.886;2023-06-22T07:47:20;28.90;60.40
32524;DHT22;18965;52.242;20.886;2023-06-22T07:49:48;28.90;60.70
32524;DHT22;18965;52.242;20.886;2023-06-22T07:52:14;28.80;60.70
32524;DHT22;18965;52.242;20.886;2023-06-22T07:54:40;28.90;60.80
32524;DHT22;18965;52.242;20.886;2023-06-22T07:57:05;28.90;60.40
32524;DHT22;18965;52.242;20.886;2023-06-22T07:59:31;28.90;60.40
32524;DHT22;18965;52.242;20.886;2023-06-22T08:01:57;28.90;60.00
32524;DHT22;18965;52.242;20.886;2023-06-22T08:04:23;28.90;59.90
32524;DHT22;18965;52.242;20.886;2023-06-22T08:06:53;28.90;59.30
32524;DHT22;18965;52.242;20.886;2023-06-22T08:09:19;28.90;59.40
32524;DHT22;18965;52.242;20.886;2023-06-22T08:11:45;28.90;58.70
32524;DHT22;18965;52.242;20.886;2023-06-22T08:14:10;28.80;58.60
32524;DHT22;18965;52.242;20.886;2023-06-22T08:16:36;28.70;58.80
32524;DHT22;18965;52.242;20.886;2023-06-22T08:19:02;28.60;58.90
32524;DHT22;18965;52.242;20.886;2023-06-22T08:21:28;28.60;59.10
32524;DHT22;18965;52.242;20.886;2023-06-22T08:23:53;28.50;59.20
32524;DHT22;18965;52.242;20.886;2023-06-22T08:26:19;28.50;59.00
32524;DHT22;18965;52.242;20.886;2023-06-22T08:28:45;28.40;58.70
32524;DHT22;18965;52.242;20.886;2023-06-22T08:31:11;28.40;58.90
32524;DHT22;18965;52.242;20.886;2023-06-22T08:33:39;28.40;59.40
32524;DHT22;18965;52.242;20.886;2023-06-22T08:36:06;28.30;59.50
32524;DHT22;18965;52.242;20.886;2023-06-22T08:38:33;28.30;59.60
32524;DHT22;18965;52.242;20.886;2023-06-22T08:40:59;28.30;59.40
32524;DHT22;18965;52.242;20.886;2023-06-22T08:43:25;28.30;59.60
32524;DHT22;18965;52.242;20.886;2023-06-22T08:45:51;28.30;59.10
32524;DHT22;18965;52.242;20.886;2023-06-22T08:48:16;28.20;58.70
32524;DHT22;18965;52.242;20.886;2023-06-22T08:50:42;28.30;58.60
32524;DHT22;18965;52.242;20.886;2023-06-22T08:53:08;28.30;58.20
32524;DHT22;18965;52.242;20.886;2023-06-22T08:55:34;28.30;58.10
32524;DHT22;18965;52.242;20.886;2023-06-22T08:57:59;28.20;57.80
32524;DHT22;18965;52.242;20.886;2023-06-22T09:00:25;28.30;58.10
32524;DHT22;18965;52.242;20.886;2023-06-22T09:02:52;28.30;57.50
32524;DHT22;18965;52.242;20.886;2023-06-22T09:05:18;28.30;57.40
32524;DHT22;18965;52.242;20.886;2023-06-22T09:07:43;28.20;57.50
32524;DHT22;18965;52.242;20.886;2023-06-22T09:10:09;28.20;57.10
32524;DHT22;18965;52.242;20.886;2023-06-22T09:12:35;28.10;56.60
32524;DHT22;18965;52.242;20.886;2023-06-22T09:15:03;28.10;55.70
32524;DHT22;18965;52.242;20.886;2023-06-22T09:17:29;28.00;55.80
32524;DHT22;18965;52.242;20.886;2023-06-22T09:19:55;28.00;56.10
32524;DHT22;18965;52.242;20.886;2023-06-22T09:22:20;28.00;55.70
32524;DHT22;18965;52.242;20.886;2023-06-22T09:24:46;28.00;55.70
32524;DHT22;18965;52.242;20.886;2023-06-22T09:27:12;27.90;55.60
32524;DHT22;18965;52.242;20.886;2023-06-22T09:29:37;27.90;55.70
32524;DHT22;18965;52.242;20.886;2023-06-22T09:32:03;27.90;55.30
32524;DHT22;18965;52.242;20.886;2023-06-22T09:34:30;27.90;55.30
32524;DHT22;18965;52.242;20.886;2023-06-22T09:36:56;27.90;55.30
32524;DHT22;18965;52.242;20.886;2023-06-22T09:39:22;27.90;56.10
32524;DHT22;18965;52.242;20.886;2023-06-22T09:41:48;27.90;55.90
32524;DHT22;18965;52.242;20.886;2023-06-22T09:44:14;27.90;55.90
32524;DHT22;18965;52.242;20.886;2023-06-22T09:46:39;27.90;55.80
32524;DHT22;18965;52.242;20.886;2023-06-22T09:49:05;27.90;55.30
32524;DHT22;18965;52.242;20.886;2023-06-22T09:51:31;28.00;55.20
32524;DHT22;18965;52.242;20.886;2023-06-22T09:53:57;27.90;54.40
32524;DHT22;18965;52.242;20.886;2023-06-22T09:56:24;27.90;55.20
32524;DHT22;18965;52.242;20.886;2023-06-22T09:58:50;28.00;55.20
32524;DHT22;18965;52.242;20.886;2023-06-22T10:01:18;28.00;55.80
32524;DHT22;18965;52.242;20.886;2023-06-22T10:03:44;28.00;54.80
32524;DHT22;18965;52.242;20.886;2023-06-22T10:06:09;28.00;54.70
32524;DHT22;18965;52.242;20.886;2023-06-22T10:08:35;28.00;55.20
32524;DHT22;18965;52.242;20.886;2023-06-22T10:11:02;28.10;55.30
32524;DHT22;18965;52.242;20.886;2023-06-22T10:13:28;28.10;55.00
32524;DHT22;18965;52.242;20.886;2023-06-22T10:15:54;28.20;54.80
32524;DHT22;18965;52.242;20.886;2023-06-22T10:18:20;28.20;55.00
32524;DHT22;18965;52.242;20.886;2023-06-22T10:20:48;28.30;54.80
32524;DHT22;18965;52.242;20.886;2023-06-22T10:23:14;28.30;55.00
32524;DHT22;18965;52.242;20.886;2023-06-22T10:25:40;28.30;55.50
32524;DHT22;18965;52.242;20.886;2023-06-22T10:28:05;28.40;55.10
32524;DHT22;18965;52.242;20.886;2023-06-22T10:30:31;28.40;54.90
32524;DHT22;18965;52.242;20.886;2023-06-22T10:32:57;28.40;55.10
32524;DHT22;18965;52.242;20.886;2023-06-22T10:35:23;28.40;56.00
32524;DHT22;18965;52.242;20.886;2023-06-22T10:37:49;28.50;54.70
32524;DHT22;18965;52.242;20.886;2023-06-22T10:40:17;28.40;53.80
32524;DHT22;18965;52.242;20.886;2023-06-22T10:42:44;28.50;53.90
32524;DHT22;18965;52.242;20.886;2023-06-22T10:45:10;28.50;53.80
32524;DHT22;18965;52.242;20.886;2023-06-22T10:47:36;28.60;53.50
32524;DHT22;18965;52.242;20.886;2023-06-22T10:50:03;28.60;53.20
32524;DHT22;18965;52.242;20.886;2023-06-22T10:52:29;28.60;53.40
32524;DHT22;18965;52.242;20.886;2023-06-22T10:54:54;28.70;53.30
32524;DHT22;18965;52.242;20.886;2023-06-22T10:57:21;28.80;54.20
32524;DHT22;18965;52.242;20.886;2023-06-22T10:59:47;28.80;53.80
32524;DHT22;18965;52.242;20.886;2023-06-22T11:02:13;28.90;53.10
32524;DHT22;18965;52.242;20.886;2023-06-22T11:04:39;29.00;52.30
32524;DHT22;18965;52.242;20.886;2023-06-22T11:07:04;28.90;51.90
32524;DHT22;18965;52.242;20.886;2023-06-22T11:09:30;28.90;51.80
32524;DHT22;18965;52.242;20.886;2023-06-22T11:11:57;28.90;52.60
32524;DHT22;18965;52.242;20.886;2023-06-22T11:14:24;28.90;52.00
32524;DHT22;18965;52.242;20.886;2023-06-22T11:16:50;28.90;51.60
32524;DHT22;18965;52.242;20.886;2023-06-22T11:19:16;28.90;51.50
32524;DHT22;18965;52.242;20.886;2023-06-22T11:21:42;28.90;52.00
32524;DHT22;18965;52.242;20.886;2023-06-22T11:24:07;28.90;51.80
32524;DHT22;18965;52.242;20.886;2023-06-22T11:26:33;29.00;52.10
32524;DHT22;18965;52.242;20.886;2023-06-22T11:28:59;29.00;52.10
32524;DHT22;18965;52.242;20.886;2023-06-22T11:31:25;29.00;51.00
32524;DHT22;18965;52.242;20.886;2023-06-22T11:33:51;29.00;50.10
32524;DHT22;18965;52.242;20.886;2023-06-22T11:36:17;29.10;50.70
32524;DHT22;18965;52.242;20.886;2023-06-22T11:38:43;29.10;51.20
32524;DHT22;18965;52.242;20.886;2023-06-22T11:41:09;29.20;51.20
32524;DHT22;18965;52.242;20.886;2023-06-22T11:43:35;29.20;51.60
32524;DHT22;18965;52.242;20.886;2023-06-22T11:46:03;29.30;50.80
32524;DHT22;18965;52.242;20.886;2023-06-22T11:48:29;29.40;50.90
32524;DHT22;18965;52.242;20.886;2023-06-22T11:50:55;29.30;50.20
32524;DHT22;18965;52.242;20.886;2023-06-22T11:53:21;29.40;50.10
32524;DHT22;18965;52.242;20.886;2023-06-22T11:55:47;29.40;50.60
32524;DHT22;18965;52.242;20.886;2023-06-22T11:58:14;29.50;50.30
32524;DHT22;18965;52.242;20.886;2023-06-22T12:00:40;29.50;49.90
32524;DHT22;18965;52.242;20.886;2023-06-22T12:03:05;29.60;50.10
32524;DHT22;18965;52.242;20.886;2023-06-22T12:05:31;29.60;49.10
32524;DHT22;18965;52.242;20.886;2023-06-22T12:07:57;29.60;49.30
32524;DHT22;18965;52.242;20.886;2023-06-22T12:10:25;29.60;49.80
32524;DHT22;18965;52.242;20.886;2023-06-22T12:12:51;29.60;49.70
32524;DHT22;18965;52.242;20.886;2023-06-22T12:15:16;29.60;49.40
32524;DHT22;18965;52.242;20.886;2023-06-22T12:17:42;29.60;49.30
32524;DHT22;18965;52.242;20.886;2023-06-22T12:20:08;29.70;49.60
32524;DHT22;18965;52.242;20.886;2023-06-22T12:22:35;29.70;49.50
32524;DHT22;18965;52.242;20.886;2023-06-22T12:25:01;29.70;49.30
32524;DHT22;18965;52.242;20.886;2023-06-22T12:27:27;29.70;49.10
32524;DHT22;18965;52.242;20.886;2023-06-22T12:29:52;29.60;48.70
32524;DHT22;18965;52.242;20.886;2023-06-22T12:32:18;29.60;48.50
32524;DHT22;18965;52.242;20.886;2023-06-22T12:34:44;29.50;47.90
32524;DHT22;18965;52.242;20.886;2023-06-22T12:37:10;29.50;48.00
32524;DHT22;18965;52.242;20.886;2023-06-22T12:39:36;29.40;47.90
32524;DHT22;18965;52.242;20.886;2023-06-22T12:42:02;29.40;47.80
32524;DHT22;18965;52.242;20.886;2023-06-22T12:44:28;29.40;48.20
32524;DHT22;18965;52.242;20.886;2023-06-22T12:46:55;29.40;47.30
32524;DHT22;18965;52.242;20.886;2023-06-22T12:49:20;29.40;47.50
32524;DHT22;18965;52.242;20.886;2023-06-22T12:51:46;29.40;48.10
32524;DHT22;18965;52.242;20.886;2023-06-22T12:54:12;29.40;48.10
32524;DHT22;18965;52.242;20.886;2023-06-22T12:56:38;29.40;47.90
32524;DHT22;18965;52.242;20.886;2023-06-22T12:59:04;29.40;47.70
32524;DHT22;18965;52.242;20.886;2023-06-22T13:01:30;29.40;47.70
32524;DHT22;18965;52.242;20.886;2023-06-22T13:04:00;29.50;47.90
32524;DHT22;18965;52.242;20.886;2023-06-22T13:06:26;29.50;47.80
32524;DHT22;18965;52.242;20.886;2023-06-22T13:08:51;29.50;47.80
32524;DHT22;18965;52.242;20.886;2023-06-22T13:11:17;29.50;47.80
32524;DHT22;18965;52.242;20.886;2023-06-22T13:13:45;29.50;48.20
32524;DHT22;18965;52.242;20.886;2023-06-22T13:16:11;29.50;48.40
32524;DHT22;18965;52.242;20.886;2023-06-22T13:18:37;29.50;48.50
32524;DHT22;18965;52.242;20.886;2023-06-22T13:21:03;29.50;47.70
32524;DHT22;18965;52.242;20.886;2023-06-22T13:23:29;29.50;47.70
32524;DHT22;18965;52.242;20.886;2023-06-22T13:25:55;29.50;46.40
32524;DHT22;18965;52.242;20.886;2023-06-22T13:28:21;29.50;46.50
32524;DHT22;18965;52.242;20.886;2023-06-22T13:30:47;29.50;47.30
32524;DHT22;18965;52.242;20.886;2023-06-22T13:33:16;29.50;47.30
32524;DHT22;18965;52.242;20.886;2023-06-22T13:35:42;29.50;47.30
32524;DHT22;18965;52.242;20.886;2023-06-22T13:38:10;29.40;47.30
32524;DHT22;18965;52.242;20.886;2023-06-22T13:40:37;29.40;47.50
32524;DHT22;18965;52.242;20.886;2023-06-22T13:43:04;29.40;47.40
32524;DHT22;18965;52.242;20.886;2023-06-22T13:45:30;29.40;47.30
32524;DHT22;18965;52.242;20.886;2023-06-22T13:47:56;29.40;47.10
32524;DHT22;18965;52.242;20.886;2023-06-22T13:50:21;29.30;46.30
32524;DHT22;18965;52.242;20.886;2023-06-22T13:52:47;29.40;46.80
32524;DHT22;18965;52.242;20.886;2023-06-22T13:55:13;29.40;46.70
32524;DHT22;18965;52.242;20.886;2023-06-22T13:57:40;29.40;47.00
32524;DHT22;18965;52.242;20.886;2023-06-22T14:00:06;29.40;47.00
32524;DHT22;18965;52.242;20.886;2023-06-22T14:02:33;29.40;46.60
32524;DHT22;18965;52.242;20.886;2023-06-22T14:04:59;29.30;47.00
32524;DHT22;18965;52.242;20.886;2023-06-22T14:07:25;29.30;47.00
32524;DHT22;18965;52.242;20.886;2023-06-22T14:09:51;29.40;46.70
32524;DHT22;18965;52.242;20.886;2023-06-22T14:12:16;29.40;46.70
32524;DHT22;18965;52.242;20.886;2023-06-22T14:14:45;29.30;46.40
32524;DHT22;18965;52.242;20.886;2023-06-22T14:17:11;29.40;47.00
32524;DHT22;18965;52.242;20.886;2023-06-22T14:19:37;29.40;47.60
32524;DHT22;18965;52.242;20.886;2023-06-22T14:22:03;29.50;47.00
32524;DHT22;18965;52.242;20.886;2023-06-22T14:24:29;29.60;47.40
32524;DHT22;18965;52.242;20.886;2023-06-22T14:26:55;29.80;47.00
32524;DHT22;18965;52.242;20.886;2023-06-22T14:29:25;29.80;46.60
32524;DHT22;18965;52.242;20.886;2023-06-22T14:31:51;29.80;46.40
32524;DHT22;18965;52.242;20.886;2023-06-22T14:34:17;29.80;46.40
32524;DHT22;18965;52.242;20.886;2023-06-22T14:36:43;29.80;46.10
32524;DHT22;18965;52.242;20.886;2023-06-22T14:39:09;29.80;46.20
32524;DHT22;18965;52.242;20.886;2023-06-22T14:41:35;29.90;46.50
32524;DHT22;18965;52.242;20.886;2023-06-22T14:44:01;29.90;46.20
32524;DHT22;18965;52.242;20.886;2023-06-22T14:46:27;29.90;46.50
32524;DHT22;18965;52.242;20.886;2023-06-22T14:48:53;30.00;46.30
32524;DHT22;18965;52.242;20.886;2023-06-22T14:51:18;30.00;45.80
32524;DHT22;18965;52.242;20.886;2023-06-22T14:53:45;29.90;45.20
32524;DHT22;18965;52.242;20.886;2023-06-22T14:56:12;30.00;45.30
32524;DHT22;18965;52.242;20.886;2023-06-22T14:58:41;30.00;45.30
32524;DHT22;18965;52.242;20.886;2023-06-22T15:01:10;30.00;45.10
32524;DHT22;18965;52.242;20.886;2023-06-22T15:03:36;30.10;45.20
32524;DHT22;18965;52.242;20.886;2023-06-22T15:06:03;30.00;45.00
32524;DHT22;18965;52.242;20.886;2023-06-22T15:08:29;30.00;44.70
32524;DHT22;18965;52.242;20.886;2023-06-22T15:10:57;30.00;44.90
32524;DHT22;18965;52.242;20.886;2023-06-22T15:13:23;30.00;45.00
32524;DHT22;18965;52.242;20.886;2023-06-22T15:15:50;29.90;45.30
32524;DHT22;18965;52.242;20.886;2023-06-22T15:18:16;29.90;44.90